Time;durP1;ratioP1;P1;durP2;ratioP2;P2;SDS_P1;SDS_P2;PMS_P1;PMS_P2;Temp;Humidity;BMP_temperature;BMP_pressure;BME280_temperature;BME280_humidity;BME280_pressure;Samples;Min_cycle;Max_cycle;Signal;HPM_P1;HPM_P2
2023/05/16 00:05:41;;;;;;;2.55;1.60;;;19.00;80.10;;;;;;10892151;32;20050;-73
2023/05/16 00:11:43;;;;;;;2.03;1.00;;;19.00;80.00;;;;;;10909746;32;20042;-73
2023/05/16 00:17:45;;;;;;;1.10;1.00;;;19.00;80.50;;;;;;10909471;32;20007;-71
2023/05/16 00:23:47;;;;;;;1.48;1.20;;;19.00;80.50;;;;;;10909227;32;20007;-73
2023/05/16 00:29:49;;;;;;;1.85;0.88;;;19.00;80.50;;;;;;10909094;32;20042;-72
2023/05/16 00:35:52;;;;;;;2.75;1.00;;;19.00;80.50;;;;;;10908830;32;20015;-72
2023/05/16 00:41:55;;;;;;;4.25;1.52;;;18.90;80.30;;;;;;10908625;32;20085;-75
2023/05/16 00:47:57;;;;;;;1.02;0.90;;;18.90;80.40;;;;;;10890373;32;20042;-74
2023/05/16 00:53:59;;;;;;;1.83;1.27;;;18.80;80.30;;;;;;10906595;32;20421;-73
2023/05/16 01:00:01;;;;;;;2.70;1.30;;;18.80;80.30;;;;;;10907995;32;20015;-73
2023/05/16 01:06:04;;;;;;;2.08;1.40;;;18.80;80.50;;;;;;10903913;32;20322;-75
2023/05/16 01:12:15;;;;;;;1.60;1.15;;;18.80;80.80;;;;;;10907686;32;20023;-74
2023/05/16 01:18:30;;;;;;;1.05;1.00;;;18.70;80.40;;;;;;10907137;32;20016;-74
2023/05/16 01:24:58;;;;;;;1.85;1.35;;;18.60;80.50;;;;;;10907059;32;20042;-74
2023/05/16 01:31:00;;;;;;;1.30;0.97;;;18.60;80.20;;;;;;10904849;32;20105;-73
2023/05/16 01:37:17;;;;;;;2.28;0.90;;;18.60;80.50;;;;;;10889033;32;20435;-73
2023/05/16 01:43:33;;;;;;;2.72;1.62;;;18.50;80.90;;;;;;10907147;32;20019;-73
2023/05/16 01:49:42;;;;;;;1.12;1.00;;;18.50;80.30;;;;;;10906901;32;20024;-75
2023/05/16 01:55:50;;;;;;;2.95;1.35;;;18.50;79.80;;;;;;10906185;32;20333;-74
2023/05/16 02:01:56;;;;;;;1.40;1.30;;;18.50;79.80;;;;;;10903588;32;20046;-75
2023/05/16 02:07:59;;;;;;;1.92;1.30;;;18.50;79.00;;;;;;10906798;32;20011;-73
2023/05/16 02:14:02;;;;;;;5.30;1.80;;;18.40;78.60;;;;;;10905958;32;20014;-76
2023/05/16 02:20:05;;;;;;;4.50;1.27;;;18.40;78.10;;;;;;10907022;32;20376;-74
2023/05/16 02:26:08;;;;;;;1.45;1.25;;;18.20;79.10;;;;;;10904819;32;20038;-76
2023/05/16 02:32:10;;;;;;;1.55;1.30;;;18.20;79.10;;;;;;10905937;32;20063;-76
2023/05/16 02:38:16;;;;;;;1.45;1.30;;;18.00;78.80;;;;;;10905876;32;20314;-77
2023/05/16 02:44:18;;;;;;;4.28;1.52;;;18.00;79.10;;;;;;10905731;32;20023;-73
2023/05/16 02:50:20;;;;;;;1.17;1.08;;;17.80;79.40;;;;;;10904716;32;20081;-74
2023/05/16 02:56:22;;;;;;;2.08;1.45;;;17.70;79.80;;;;;;10904844;32;20042;-74
2023/05/16 03:02:24;;;;;;;1.62;1.30;;;17.60;80.10;;;;;;10903492;32;20019;-74
2023/05/16 03:08:26;;;;;;;1.77;1.25;;;17.60;80.40;;;;;;10905201;32;20401;-74
2023/05/16 03:14:27;;;;;;;1.25;1.00;;;17.50;80.50;;;;;;10903841;32;20046;-81
2023/05/16 03:20:30;;;;;;;1.35;1.08;;;17.50;81.00;;;;;;10905010;32;20028;-74
2023/05/16 03:26:31;;;;;;;1.42;1.12;;;17.50;81.30;;;;;;10904830;32;20054;-74
2023/05/16 03:32:33;;;;;;;2.15;1.17;;;17.60;81.80;;;;;;10890638;32;20031;-73
2023/05/16 03:38:36;;;;;;;1.35;1.00;;;17.70;82.00;;;;;;10905290;32;20016;-74
2023/05/16 03:44:38;;;;;;;1.75;1.05;;;17.80;82.00;;;;;;10897399;32;20015;-78
2023/05/16 03:50:40;;;;;;;1.20;1.08;;;17.80;81.90;;;;;;10910270;32;20169;-74
2023/05/16 03:56:43;;;;;;;1.52;1.17;;;17.70;82.00;;;;;;10898102;32;20015;-74
2023/05/16 04:02:44;;;;;;;1.12;1.02;;;17.70;82.20;;;;;;10897343;32;20019;-74
2023/05/16 04:09:09;;;;;;;1.02;0.93;;;17.80;82.10;;;;;;10911097;32;20011;-74
2023/05/16 04:15:11;;;;;;;2.47;1.33;;;17.80;81.90;;;;;;10909640;32;20029;-74
2023/05/16 04:21:14;;;;;;;0.90;0.90;;;17.80;82.10;;;;;;10910670;32;20019;-73
2023/05/16 04:27:16;;;;;;;1.12;1.00;;;17.80;82.10;;;;;;10897716;32;20015;-74
2023/05/16 04:33:18;;;;;;;1.10;1.00;;;17.80;82.20;;;;;;10910149;32;20424;-74
2023/05/16 04:39:20;;;;;;;0.95;0.90;;;17.80;82.40;;;;;;10909389;32;20046;-73
2023/05/16 04:45:22;;;;;;;1.77;0.95;;;17.80;82.60;;;;;;10908632;32;20019;-73
2023/05/16 04:51:24;;;;;;;1.52;1.10;;;17.70;82.60;;;;;;10894323;32;20023;-73
2023/05/16 04:57:27;;;;;;;0.80;0.80;;;17.70;82.60;;;;;;10892233;32;20023;-73
2023/05/16 05:03:29;;;;;;;1.50;0.98;;;17.70;82.70;;;;;;10907927;32;20015;-74
2023/05/16 05:09:31;;;;;;;0.80;0.80;;;17.70;82.80;;;;;;10907813;32;20015;-72
2023/05/16 05:15:33;;;;;;;0.95;0.93;;;17.70;82.90;;;;;;10895995;32;20015;-73
2023/05/16 05:21:35;;;;;;;1.08;1.08;;;17.70;83.00;;;;;;10907331;32;20054;-72
2023/05/16 05:27:37;;;;;;;2.55;1.23;;;17.70;82.80;;;;;;10903077;32;20034;-72
2023/05/16 05:33:39;;;;;;;1.15;1.05;;;17.70;82.70;;;;;;10907971;32;20054;-72
2023/05/16 05:39:41;;;;;;;1.10;0.85;;;17.70;82.90;;;;;;10907734;32;20011;-73
2023/05/16 05:45:44;;;;;;;2.50;1.48;;;17.50;83.10;;;;;;10892583;32;20073;-73
2023/05/16 05:51:46;;;;;;;3.15;1.52;;;17.50;83.40;;;;;;10905438;32;20307;-73
2023/05/16 05:57:48;;;;;;;3.72;1.77;;;17.50;83.40;;;;;;10890060;32;20057;-74
2023/05/16 06:03:50;;;;;;;3.00;2.22;;;17.50;83.20;;;;;;10891779;32;20067;-75
2023/05/16 06:09:53;;;;;;;1.70;1.20;;;17.40;83.00;;;;;;10905679;32;20035;-77
2023/05/16 06:15:55;;;;;;;3.03;1.92;;;17.30;82.60;;;;;;10900268;32;20027;-76
2023/05/16 06:21:57;;;;;;;2.45;1.45;;;17.30;82.30;;;;;;10925211;32;20034;-76
2023/05/16 06:27:59;;;;;;;3.47;1.87;;;17.10;81.70;;;;;;10943803;32;20454;-77
2023/05/16 06:34:02;;;;;;;4.05;2.28;;;16.90;81.70;;;;;;10928562;32;20065;-75
2023/05/16 06:40:04;;;;;;;2.37;2.10;;;16.70;82.00;;;;;;10943548;32;20036;-76
2023/05/16 06:46:07;;;;;;;5.87;2.42;;;16.60;82.50;;;;;;10942059;32;20018;-76
2023/05/16 06:52:09;;;;;;;2.58;2.05;;;16.50;83.10;;;;;;10939898;32;20019;-75
2023/05/16 06:58:11;;;;;;;3.90;2.15;;;16.50;83.60;;;;;;10942432;32;20069;-78
2023/05/16 07:04:14;;;;;;;2.97;1.73;;;16.40;83.70;;;;;;10942966;32;20381;-74
2023/05/16 07:10:16;;;;;;;2.97;2.05;;;16.40;83.70;;;;;;10938964;32;20301;-74
2023/05/16 07:16:18;;;;;;;3.47;1.85;;;16.50;83.80;;;;;;10951008;32;20046;-79
2023/05/16 07:22:20;;;;;;;2.17;1.80;;;16.50;84.20;;;;;;10951300;32;20085;-74
2023/05/16 07:28:22;;;;;;;9.10;1.80;;;16.50;84.60;;;;;;10954949;32;20380;-75
2023/05/16 07:34:25;;;;;;;2.78;2.33;;;16.50;84.90;;;;;;10955362;32;20026;-74
2023/05/16 07:40:28;;;;;;;2.97;1.92;;;16.60;85.10;;;;;;10954773;32;20011;-75
2023/05/16 07:46:30;;;;;;;2.20;1.80;;;16.60;85.00;;;;;;10951210;32;20034;-75
2023/05/16 07:52:32;;;;;;;4.15;2.33;;;16.60;85.20;;;;;;10702474;27;7341064;-76
2023/05/16 07:58:34;;;;;;;1.77;1.25;;;16.60;85.00;;;;;;10916289;32;20042;-74
2023/05/16 08:04:36;;;;;;;2.17;1.45;;;16.60;85.10;;;;;;10916200;32;20394;-74
2023/05/16 08:10:39;;;;;;;1.55;1.25;;;16.70;85.00;;;;;;10917170;32;20046;-74
2023/05/16 08:16:41;;;;;;;1.25;1.00;;;16.80;84.90;;;;;;10915591;32;20364;-74
2023/05/16 08:22:43;;;;;;;2.92;1.98;;;16.90;84.60;;;;;;10916013;32;20019;-74
2023/05/16 08:28:45;;;;;;;2.87;2.12;;;17.10;84.50;;;;;;10910272;32;20007;-74
2023/05/16 08:34:47;;;;;;;3.20;1.95;;;17.20;84.60;;;;;;10910245;32;20023;-75
2023/05/16 08:40:49;;;;;;;1.85;1.50;;;17.30;84.70;;;;;;10909494;32;20015;-74
2023/05/16 08:46:53;;;;;;;4.75;3.45;;;17.30;84.80;;;;;;10906870;32;20310;-75
2023/05/16 08:52:56;;;;;;;2.58;2.15;;;17.30;84.90;;;;;;10908864;32;20020;-75
2023/05/16 08:58:59;;;;;;;3.20;2.17;;;17.30;85.00;;;;;;10909582;32;20318;-74
2023/05/16 09:05:03;;;;;;;5.18;3.78;;;17.50;85.00;;;;;;10909794;32;20073;-76
2023/05/16 09:11:05;;;;;;;2.55;1.92;;;17.60;85.00;;;;;;10908151;32;20334;-73
2023/05/16 09:17:08;;;;;;;1.42;1.17;;;17.50;84.90;;;;;;10908094;32;20045;-72
2023/05/16 09:23:10;;;;;;;2.25;1.48;;;17.50;84.90;;;;;;10907305;32;20024;-72
2023/05/16 09:29:53;;;;;;;2.67;1.90;;;17.60;84.60;;;;;;10907851;32;20408;-73
2023/05/16 09:36:00;;;;;;;2.65;1.48;;;17.60;84.50;;;;;;10907854;32;20027;-72
2023/05/16 09:42:03;;;;;;;2.12;1.37;;;17.60;84.30;;;;;;10905891;32;20044;-73
2023/05/16 09:48:14;;;;;;;3.65;2.20;;;17.70;84.20;;;;;;10907751;32;20020;-72
2023/05/16 09:54:15;;;;;;;2.87;1.87;;;17.70;84.20;;;;;;10906594;32;20053;-72
2023/05/16 10:00:17;;;;;;;3.40;2.03;;;17.70;84.50;;;;;;10905265;32;20038;-73
2023/05/16 10:06:21;;;;;;;4.10;1.80;;;17.60;84.50;;;;;;10904846;32;20037;-72
2023/05/16 10:12:33;;;;;;;2.25;1.60;;;17.60;84.60;;;;;;10905160;32;20027;-73
2023/05/16 10:18:38;;;;;;;1.87;1.55;;;17.50;84.40;;;;;;10904147;32;20054;-72
2023/05/16 10:24:51;;;;;;;2.20;1.75;;;17.50;84.60;;;;;;10906375;32;20317;-72
2023/05/16 10:30:59;;;;;;;1.85;1.25;;;17.50;84.50;;;;;;10906143;32;20007;-72
2023/05/16 10:37:05;;;;;;;1.27;1.10;;;17.50;84.40;;;;;;10905453;32;20082;-72
2023/05/16 10:43:07;;;;;;;1.20;1.10;;;17.50;84.30;;;;;;10904512;32;20019;-73
2023/05/16 10:49:42;;;;;;;1.20;1.10;;;17.40;84.20;;;;;;10905685;32;20031;-72
2023/05/16 10:55:59;;;;;;;1.58;1.10;;;17.50;84.30;;;;;;10887788;32;20042;-73
2023/05/16 11:02:02;;;;;;;0.57;0.57;;;17.50;84.10;;;;;;10900707;32;20075;-71
2023/05/16 11:08:10;;;;;;;1.00;0.95;;;17.60;84.10;;;;;;10899647;32;20016;-72
2023/05/16 11:14:42;;;;;;;1.48;0.70;;;17.80;83.90;;;;;;10900464;32;20035;-72
2023/05/16 11:20:44;;;;;;;0.90;0.90;;;17.80;83.70;;;;;;10900349;32;20011;-71
2023/05/16 11:26:48;;;;;;;1.27;1.17;;;17.80;83.50;;;;;;10900497;32;20357;-71
2023/05/16 11:33:21;;;;;;;0.73;0.73;;;17.80;83.30;;;;;;10903651;32;20015;-73
2023/05/16 11:39:31;;;;;;;0.57;0.57;;;17.90;83.30;;;;;;10904684;32;20302;-74
2023/05/16 11:45:34;;;;;;;1.37;1.20;;;18.00;83.20;;;;;;10904464;32;20041;-73
2023/05/16 11:51:44;;;;;;;1.50;0.75;;;18.00;83.00;;;;;;10904008;32;20027;-74
2023/05/16 11:58:13;;;;;;;2.12;1.27;;;18.00;82.90;;;;;;10902734;32;20032;-71
2023/05/16 12:04:46;;;;;;;0.90;0.80;;;18.00;83.30;;;;;;10908334;32;20069;-72
2023/05/16 12:10:50;;;;;;;3.53;2.28;;;18.00;83.60;;;;;;10910061;32;20019;-73
2023/05/16 12:16:53;;;;;;;1.48;1.17;;;18.10;83.80;;;;;;10910244;32;20059;-73
2023/05/16 12:23:12;;;;;;;1.12;1.02;;;18.20;84.60;;;;;;10910645;32;20011;-74
2023/05/16 12:29:25;;;;;;;1.00;0.90;;;18.20;84.50;;;;;;10907952;32;20031;-75
2023/05/16 12:35:32;;;;;;;1.25;1.00;;;18.30;84.70;;;;;;10910159;32;20011;-74
2023/05/16 12:41:41;;;;;;;1.08;0.82;;;18.40;84.70;;;;;;10896287;32;20300;-78
2023/05/16 12:47:45;;;;;;;1.17;0.93;;;18.50;84.60;;;;;;10872490;32;20007;-75
2023/05/16 12:53:48;;;;;;;2.17;1.12;;;18.50;84.70;;;;;;10871121;32;20027;-74
2023/05/16 12:59:50;;;;;;;1.12;1.02;;;18.50;84.90;;;;;;10872051;32;20382;-72
2023/05/16 13:05:52;;;;;;;2.92;1.02;;;18.50;84.80;;;;;;10870598;32;20069;-73
2023/05/16 13:12:12;;;;;;;0.70;0.70;;;18.50;84.90;;;;;;10870419;32;20379;-74
2023/05/16 13:18:15;;;;;;;1.02;0.80;;;18.60;84.40;;;;;;10870698;32;20046;-71
2023/05/16 13:24:28;;;;;;;0.52;0.52;;;18.70;84.10;;;;;;10898012;32;20337;-72
2023/05/16 13:30:52;;;;;;;1.10;0.88;;;18.80;84.40;;;;;;10862246;32;20063;-73
2023/05/16 13:36:54;;;;;;;1.25;1.15;;;18.80;84.00;;;;;;10865198;32;20016;-74
2023/05/16 13:42:56;;;;;;;2.35;1.20;;;18.80;82.80;;;;;;10866258;32;20046;-73
2023/05/16 13:48:59;;;;;;;0.80;0.80;;;18.70;83.10;;;;;;10858701;32;20054;-74
2023/05/16 13:55:01;;;;;;;1.20;0.70;;;18.70;82.30;;;;;;10861644;32;20375;-74
2023/05/16 14:01:04;;;;;;;0.70;0.70;;;18.70;82.60;;;;;;10861411;32;20069;-72
2023/05/16 14:07:06;;;;;;;5.03;1.08;;;18.70;82.70;;;;;;10883214;32;20507;-72
2023/05/16 14:13:08;;;;;;;2.45;1.12;;;18.60;82.50;;;;;;10909650;32;20039;-72
2023/05/16 14:19:11;;;;;;;1.55;1.25;;;18.50;81.80;;;;;;10892483;32;20106;-72
2023/05/16 14:25:14;;;;;;;0.88;0.80;;;18.50;81.70;;;;;;10900718;32;20066;-73
2023/05/16 14:31:16;;;;;;;1.27;1.17;;;18.50;81.60;;;;;;10905522;32;20019;-72
2023/05/16 14:37:19;;;;;;;1.55;0.60;;;18.50;81.70;;;;;;10903625;32;20061;-73
2023/05/16 14:43:21;;;;;;;4.18;1.35;;;18.40;81.70;;;;;;10905238;32;20023;-73
2023/05/16 14:49:25;;;;;;;2.37;0.95;;;18.30;82.30;;;;;;10904848;32;20049;-73
2023/05/16 14:55:28;;;;;;;1.65;1.10;;;18.30;82.40;;;;;;10904150;32;20046;-73
2023/05/16 15:01:52;;;;;;;2.47;1.42;;;18.30;82.30;;;;;;10903187;32;20022;-72
2023/05/16 15:08:26;;;;;;;1.33;0.95;;;18.20;82.60;;;;;;10921037;32;20027;-72
2023/05/16 15:14:30;;;;;;;2.35;1.17;;;18.10;82.70;;;;;;10938492;32;20046;-72
2023/05/16 15:20:41;;;;;;;4.03;1.23;;;18.00;82.60;;;;;;10938368;32;20065;-73
2023/05/16 15:26:44;;;;;;;4.60;1.55;;;18.00;82.80;;;;;;10926063;32;20022;-72
2023/05/16 15:33:18;;;;;;;1.65;1.17;;;17.90;82.60;;;;;;10937783;32;20031;-72
2023/05/16 15:39:27;;;;;;;1.52;1.10;;;17.90;83.00;;;;;;10939168;32;20053;-72
2023/05/16 15:45:31;;;;;;;3.47;0.90;;;17.80;82.70;;;;;;10889283;32;20062;-72
2023/05/16 15:51:35;;;;;;;0.75;0.75;;;17.70;82.60;;;;;;10874563;27;20455;-73
2023/05/16 15:57:37;;;;;;;1.58;1.02;;;17.60;82.60;;;;;;10909918;32;20019;-74
2023/05/16 16:03:40;;;;;;;2.80;1.50;;;17.50;82.50;;;;;;10909929;32;20066;-72
2023/05/16 16:09:45;;;;;;;0.70;0.70;;;17.30;82.90;;;;;;10907283;32;20392;-74
2023/05/16 16:16:14;;;;;;;3.33;1.37;;;17.20;83.30;;;;;;10910118;32;20042;-73
2023/05/16 16:22:45;;;;;;;1.35;1.05;;;17.20;83.50;;;;;;10909756;32;20034;-72
2023/05/16 16:28:49;;;;;;;0.88;0.88;;;17.10;83.40;;;;;;10909340;32;20024;-72
2023/05/16 16:34:56;;;;;;;1.75;1.08;;;17.00;84.10;;;;;;10909677;32;20034;-72
2023/05/16 16:41:03;;;;;;;0.70;0.70;;;16.90;84.40;;;;;;10907972;32;20452;-72
2023/05/16 16:47:05;;;;;;;0.85;0.85;;;16.90;84.60;;;;;;10907761;32;20023;-72
2023/05/16 16:53:26;;;;;;;1.45;1.00;;;16.90;84.90;;;;;;10908807;32;20042;-73
2023/05/16 17:00:14;;;;;;;0.93;0.93;;;16.90;84.90;;;;;;10909530;32;20023;-72
2023/05/16 17:06:16;;;;;;;0.85;0.80;;;17.00;85.00;;;;;;10894401;32;20061;-72
2023/05/16 17:18:52;;;;;;;1.27;1.17;;;17.20;84.60;;;;;;10903537;32;20354;-72
2023/05/16 17:24:54;;;;;;;2.87;1.50;;;17.20;84.50;;;;;;10905869;32;20393;-73
2023/05/16 17:31:23;;;;;;;1.67;1.33;;;17.20;84.40;;;;;;10908385;32;20386;-73
2023/05/16 17:37:25;;;;;;;2.65;1.27;;;17.10;84.30;;;;;;10908050;32;20023;-73
2023/05/16 17:43:29;;;;;;;4.57;1.37;;;17.20;84.30;;;;;;10908028;32;20412;-73
2023/05/16 17:49:31;;;;;;;2.70;0.98;;;17.20;84.30;;;;;;10903522;32;20028;-73
2023/05/16 17:55:33;;;;;;;1.65;1.50;;;17.20;84.20;;;;;;10906377;32;20377;-73
2023/05/16 18:01:35;;;;;;;1.17;1.08;;;17.20;84.20;;;;;;10907142;32;20015;-73
2023/05/16 18:07:37;;;;;;;1.27;1.17;;;17.10;84.10;;;;;;10903714;32;20023;-73
2023/05/16 18:13:40;;;;;;;2.30;1.48;;;17.10;84.20;;;;;;10906241;32;20342;-73
2023/05/16 18:19:42;;;;;;;1.80;1.50;;;17.10;84.20;;;;;;10904007;32;20043;-73
2023/05/16 18:25:44;;;;;;;0.90;0.90;;;17.00;84.20;;;;;;10905334;32;20051;-73
2023/05/16 18:31:46;;;;;;;3.30;1.52;;;17.00;84.20;;;;;;10878516;32;20058;-73
2023/05/16 18:37:47;;;;;;;7.65;2.12;;;17.10;84.10;;;;;;10868501;32;20039;-74
2023/05/16 18:43:50;;;;;;;2.95;1.90;;;17.10;84.20;;;;;;10862050;32;20062;-74
2023/05/16 18:49:52;;;;;;;3.50;2.42;;;17.10;84.30;;;;;;10867779;32;20019;-74
2023/05/16 18:55:54;;;;;;;3.30;2.35;;;17.10;84.20;;;;;;10866987;32;20063;-74
2023/05/16 19:01:56;;;;;;;6.18;4.07;;;17.10;84.30;;;;;;10880167;32;20043;-74
2023/05/16 19:07:58;;;;;;;3.60;2.17;;;17.00;84.20;;;;;;10867869;32;20065;-74
2023/05/16 19:14:00;;;;;;;3.92;2.12;;;16.90;84.30;;;;;;10867432;32;20390;-73
2023/05/16 19:20:03;;;;;;;3.65;1.85;;;16.80;84.30;;;;;;10867064;32;20023;-73
2023/05/16 19:26:05;;;;;;;4.30;2.33;;;16.80;84.40;;;;;;10867539;32;20016;-72
2023/05/16 19:32:07;;;;;;;1.67;1.50;;;16.70;84.30;;;;;;10867365;32;20047;-74
2023/05/16 19:38:09;;;;;;;1.90;1.40;;;16.60;84.40;;;;;;10867415;32;20040;-73
2023/05/16 19:44:11;;;;;;;1.42;1.33;;;16.60;84.50;;;;;;10865894;32;20019;-73
2023/05/16 19:50:14;;;;;;;3.08;2.12;;;16.60;84.40;;;;;;10878586;32;20047;-73
2023/05/16 19:56:15;;;;;;;2.33;1.62;;;16.70;84.40;;;;;;10865740;32;20032;-73
2023/05/16 20:02:18;;;;;;;3.92;1.95;;;16.70;84.40;;;;;;10866189;32;20057;-73
2023/05/16 20:08:20;;;;;;;3.92;1.75;;;16.70;84.50;;;;;;10866759;32;20026;-73
2023/05/16 20:14:22;;;;;;;2.00;1.67;;;16.70;84.50;;;;;;10866122;32;20050;-73
2023/05/16 20:20:25;;;;;;;2.10;1.48;;;16.70;84.50;;;;;;10866217;32;20089;-73
2023/05/16 20:26:26;;;;;;;1.58;1.30;;;16.70;84.40;;;;;;10868289;32;20054;-74
2023/05/16 20:32:28;;;;;;;2.58;1.67;;;16.70;84.40;;;;;;10898903;32;20055;-74
2023/05/16 20:38:30;;;;;;;2.53;1.40;;;16.70;84.50;;;;;;10867915;32;20024;-73
2023/05/16 20:44:33;;;;;;;2.37;1.20;;;16.70;84.30;;;;;;10872720;32;20024;-73
2023/05/16 20:50:35;;;;;;;2.55;1.98;;;16.80;84.30;;;;;;10871638;32;20298;-74
2023/05/16 20:56:37;;;;;;;3.40;1.48;;;16.70;84.40;;;;;;10871408;32;20028;-74
2023/05/16 21:02:39;;;;;;;2.92;1.70;;;16.60;84.30;;;;;;10869536;32;20032;-74
2023/05/16 21:08:41;;;;;;;1.92;1.50;;;16.40;84.50;;;;;;10871923;32;20406;-74
2023/05/16 21:14:45;;;;;;;1.60;1.50;;;16.50;84.50;;;;;;10871343;32;20066;-74
2023/05/16 21:20:47;;;;;;;1.75;1.30;;;16.40;84.50;;;;;;10871003;32;20042;-74
2023/05/16 21:26:49;;;;;;;3.92;1.50;;;16.50;84.50;;;;;;10871311;32;20012;-74
2023/05/16 21:32:51;;;;;;;1.08;1.02;;;16.50;84.50;;;;;;10869212;32;20054;-74
2023/05/16 21:38:53;;;;;;;3.53;2.33;;;16.50;84.50;;;;;;10866613;32;20049;-74
2023/05/16 21:44:55;;;;;;;2.47;1.95;;;16.50;84.50;;;;;;10869952;32;20032;-74
2023/05/16 21:50:58;;;;;;;2.30;1.62;;;16.60;84.60;;;;;;10867130;32;20402;-74
2023/05/16 21:57:00;;;;;;;1.90;1.52;;;16.60;84.50;;;;;;10870224;32;20065;-74
2023/05/16 22:03:02;;;;;;;3.37;1.60;;;16.50;84.50;;;;;;10868046;32;20015;-74
2023/05/16 22:09:06;;;;;;;1.83;1.40;;;16.60;84.70;;;;;;10868959;32;20063;-74
2023/05/16 22:15:11;;;;;;;2.55;1.83;;;16.60;84.80;;;;;;10867956;32;20331;-74
2023/05/16 22:21:16;;;;;;;1.85;1.65;;;16.50;84.70;;;;;;10862427;32;20062;-74
2023/05/16 22:27:18;;;;;;;3.78;2.08;;;16.50;84.80;;;;;;10868534;32;20341;-74
2023/05/16 22:33:23;;;;;;;2.90;1.50;;;16.50;85.00;;;;;;10868816;32;20398;-74
2023/05/16 22:39:28;;;;;;;11.05;2.05;;;16.50;85.00;;;;;;10866172;32;20019;-74
2023/05/16 22:45:30;;;;;;;1.83;1.55;;;16.50;85.00;;;;;;10864428;32;20015;-74
2023/05/16 22:51:32;;;;;;;2.10;1.60;;;16.50;84.90;;;;;;10867233;32;20028;-74
2023/05/16 22:57:34;;;;;;;7.57;1.55;;;16.40;84.80;;;;;;10863590;32;20059;-73
2023/05/16 23:03:36;;;;;;;2.42;1.80;;;16.40;84.90;;;;;;10865215;32;20046;-73
2023/05/16 23:09:38;;;;;;;1.50;1.40;;;16.40;84.90;;;;;;10867439;32;20402;-73
2023/05/16 23:15:41;;;;;;;1.87;1.60;;;16.40;84.90;;;;;;10866537;32;20053;-73
2023/05/16 23:21:58;;;;;;;2.10;1.62;;;16.40;84.80;;;;;;10867227;32;20051;-73
2023/05/16 23:28:18;;;;;;;2.00;1.80;;;16.40;84.80;;;;;;10865214;32;20043;-73
2023/05/16 23:34:20;;;;;;;2.95;2.03;;;16.40;85.00;;;;;;10867279;32;20028;-73
2023/05/16 23:40:22;;;;;;;3.72;1.95;;;16.40;85.00;;;;;;10866234;32;20046;-73
2023/05/16 23:46:25;;;;;;;2.05;1.62;;;16.30;85.30;;;;;;10862083;32;20063;-72
2023/05/16 23:52:27;;;;;;;2.97;2.00;;;16.30;85.20;;;;;;10885974;27;20464;-74
2023/05/16 23:58:29;;;;;;;3.28;2.42;;;16.30;85.20;;;;;;10894228;32;20054;-73
